Time;durP1;ratioP1;P1;durP2;ratioP2;P2;SDS_P1;SDS_P2;PMS_P1;PMS_P2;Temp;Humidity;BMP_temperature;BMP_pressure;BME280_temperature;BME280_humidity;BME280_pressure;Samples;Min_cycle;Max_cycle;Signal;HPM_P1;HPM_P2
2023/07/29 00:01:36;;;;;;;2.47;0.80;;;17.80;99.90;;;;;;5091269;28;20036;-68
2023/07/29 00:04:02;;;;;;;5.28;1.00;;;17.80;99.90;;;;;;5096885;28;20032;-68
2023/07/29 00:06:28;;;;;;;0.98;0.80;;;17.80;99.90;;;;;;5093549;28;20318;-69
2023/07/29 00:08:53;;;;;;;1.47;0.87;;;17.80;99.90;;;;;;5094145;28;20024;-68
2023/07/29 00:11:19;;;;;;;1.10;0.90;;;17.80;99.90;;;;;;5095116;28;20024;-84
2023/07/29 00:13:45;;;;;;;3.27;0.87;;;17.80;99.90;;;;;;5096105;28;20047;-68
2023/07/29 00:16:10;;;;;;;3.50;1.10;;;17.80;99.90;;;;;;5091744;28;20020;-69
2023/07/29 00:18:36;;;;;;;4.43;0.80;;;17.80;99.90;;;;;;5084957;28;20357;-69
2023/07/29 00:21:02;;;;;;;4.00;1.13;;;17.80;99.90;;;;;;5090056;28;20031;-68
2023/07/29 00:23:29;;;;;;;1.10;0.70;;;17.80;99.90;;;;;;5090171;28;20319;-68
2023/07/29 00:25:54;;;;;;;1.17;0.75;;;17.80;99.90;;;;;;5077667;28;20028;-68
2023/07/29 00:28:20;;;;;;;2.27;1.00;;;17.80;99.90;;;;;;5095748;28;20368;-68
2023/07/29 00:30:45;;;;;;;1.97;0.80;;;17.80;99.90;;;;;;5095289;28;20031;-68
2023/07/29 00:33:11;;;;;;;1.50;1.10;;;17.80;99.90;;;;;;5095407;28;20043;-69
2023/07/29 00:35:37;;;;;;;0.70;0.70;;;17.80;99.90;;;;;;5073617;28;20020;-68
2023/07/29 00:38:03;;;;;;;1.30;1.10;;;17.80;99.90;;;;;;5094794;28;20129;-68
2023/07/29 00:40:29;;;;;;;1.73;1.20;;;17.80;99.90;;;;;;5095173;28;20019;-69
2023/07/29 00:42:55;;;;;;;1.60;0.63;;;17.80;99.90;;;;;;5096212;28;20020;-69
2023/07/29 00:45:22;;;;;;;1.27;0.97;;;17.80;99.90;;;;;;5095718;28;20055;-69
2023/07/29 00:47:48;;;;;;;1.63;1.05;;;17.80;99.90;;;;;;5095265;28;20031;-68
2023/07/29 00:50:15;;;;;;;1.87;0.93;;;17.80;99.90;;;;;;5094224;28;20020;-68
2023/07/29 00:52:41;;;;;;;2.85;0.80;;;17.80;99.90;;;;;;5091174;28;20024;-69
2023/07/29 00:55:07;;;;;;;4.23;1.43;;;17.90;99.90;;;;;;5095724;28;20134;-68
2023/07/29 00:57:34;;;;;;;6.05;1.67;;;17.90;99.90;;;;;;5095160;28;20115;-68
2023/07/29 01:00:01;;;;;;;3.58;1.20;;;17.90;99.90;;;;;;5095911;28;20039;-68
2023/07/29 01:02:29;;;;;;;1.02;0.77;;;17.90;99.90;;;;;;5095184;28;20046;-68
2023/07/29 01:04:57;;;;;;;3.80;1.00;;;18.00;99.90;;;;;;5094746;28;20024;-68
2023/07/29 01:07:38;;;;;;;6.75;1.80;;;18.00;99.90;;;;;;5094985;28;20365;-69
2023/07/29 01:10:14;;;;;;;4.20;1.35;;;17.90;99.90;;;;;;5090728;28;20438;-69
2023/07/29 01:13:03;;;;;;;1.35;1.10;;;18.00;99.90;;;;;;5092141;28;20314;-69
2023/07/29 01:15:40;;;;;;;3.83;1.55;;;18.00;99.90;;;;;;5083619;28;20051;-68
2023/07/29 01:18:11;;;;;;;0.98;0.70;;;18.00;99.90;;;;;;5093736;28;20058;-69
2023/07/29 01:20:40;;;;;;;1.58;0.90;;;18.00;99.90;;;;;;5095163;28;20112;-69
2023/07/29 01:23:05;;;;;;;3.35;0.90;;;17.90;99.90;;;;;;5088498;28;20414;-68
2023/07/29 01:25:31;;;;;;;1.60;0.90;;;18.00;99.90;;;;;;5086229;28;20085;-68
2023/07/29 01:27:58;;;;;;;5.00;1.53;;;18.00;99.90;;;;;;5096960;28;20028;-68
2023/07/29 01:30:28;;;;;;;;;;;18.00;99.90;;;;;;5094975;28;20024;-68
2023/07/29 01:33:16;;;;;;;2.40;1.05;;;17.90;99.90;;;;;;5094820;28;19904;-68
2023/07/29 01:35:44;;;;;;;1.67;0.90;;;17.90;99.90;;;;;;5093572;28;20051;-69
2023/07/29 01:38:18;;;;;;;2.80;1.05;;;17.90;99.90;;;;;;5094352;28;20062;-68
2023/07/29 01:40:44;;;;;;;1.42;1.15;;;17.90;99.90;;;;;;5094312;28;20012;-68
2023/07/29 01:43:10;;;;;;;3.90;1.33;;;17.90;99.90;;;;;;5095155;28;20051;-68
2023/07/29 01:45:38;;;;;;;3.33;1.40;;;17.90;99.90;;;;;;5093545;28;20024;-68
2023/07/29 01:48:07;;;;;;;3.25;1.17;;;17.80;99.90;;;;;;5094387;28;20031;-68
2023/07/29 01:50:33;;;;;;;3.65;1.17;;;17.80;99.90;;;;;;5089594;28;20020;-68
2023/07/29 01:53:00;;;;;;;1.70;1.00;;;17.70;99.90;;;;;;5094780;28;20008;-68
2023/07/29 01:55:25;;;;;;;2.92;1.08;;;17.70;99.90;;;;;;5073424;28;20076;-68
2023/07/29 01:57:51;;;;;;;5.47;1.30;;;17.70;99.90;;;;;;5092515;28;20070;-68
2023/07/29 02:00:18;;;;;;;2.28;1.23;;;17.70;99.90;;;;;;5094402;28;20027;-69
2023/07/29 02:02:44;;;;;;;;;;;17.60;99.90;;;;;;5093237;28;20076;-67
2023/07/29 02:05:09;;;;;;;4.90;1.27;;;17.60;99.90;;;;;;5093727;28;19966;-67
2023/07/29 02:07:35;;;;;;;3.60;1.60;;;17.60;99.90;;;;;;5093623;28;20145;-68
2023/07/29 02:10:00;;;;;;;2.63;1.47;;;17.60;99.90;;;;;;5094570;28;20021;-68
2023/07/29 02:12:26;;;;;;;3.47;1.20;;;17.60;99.90;;;;;;5094566;28;20032;-68
2023/07/29 02:14:52;;;;;;;1.40;1.13;;;17.60;99.90;;;;;;5091665;28;20024;-68
2023/07/29 02:17:17;;;;;;;2.80;1.57;;;17.60;99.90;;;;;;5076588;28;20027;-68
2023/07/29 02:19:43;;;;;;;5.90;2.07;;;17.60;99.90;;;;;;5091110;28;20032;-68
2023/07/29 02:22:13;;;;;;;2.23;1.50;;;17.60;99.90;;;;;;5093850;28;20070;-68
2023/07/29 02:24:38;;;;;;;3.53;1.88;;;17.60;99.90;;;;;;5071256;28;20025;-68
2023/07/29 02:27:04;;;;;;;6.43;1.60;;;17.60;99.90;;;;;;5093986;28;20096;-68
2023/07/29 02:29:30;;;;;;;3.63;1.83;;;17.60;99.90;;;;;;5093052;28;20024;-68
2023/07/29 02:31:56;;;;;;;8.00;2.03;;;17.50;99.90;;;;;;5093567;28;20020;-68
2023/07/29 02:34:21;;;;;;;4.27;1.77;;;17.50;99.90;;;;;;5092636;28;20119;-68
2023/07/29 02:36:47;;;;;;;2.27;1.30;;;17.40;99.90;;;;;;5094427;28;20065;-68
2023/07/29 02:39:13;;;;;;;2.60;1.70;;;17.40;99.90;;;;;;5091772;28;20020;-68
2023/07/29 02:41:38;;;;;;;5.30;1.97;;;17.40;99.90;;;;;;5086283;28;20106;-68
2023/07/29 02:44:05;;;;;;;11.80;1.80;;;17.40;99.90;;;;;;5074070;28;20035;-68
2023/07/29 02:46:31;;;;;;;2.78;1.30;;;17.40;99.90;;;;;;5092698;28;20430;-69
2023/07/29 02:48:56;;;;;;;4.37;1.83;;;17.40;99.90;;;;;;5093945;28;20038;-69
2023/07/29 02:51:22;;;;;;;3.00;1.60;;;17.30;99.90;;;;;;5093579;28;20085;-69
2023/07/29 02:53:48;;;;;;;3.43;2.07;;;17.30;99.90;;;;;;5092932;28;20059;-68
2023/07/29 02:56:13;;;;;;;5.27;1.63;;;17.30;99.90;;;;;;5092772;28;20024;-68
2023/07/29 02:58:39;;;;;;;2.67;1.97;;;17.30;99.90;;;;;;5086982;28;20051;-68
2023/07/29 03:01:06;;;;;;;5.40;1.63;;;17.30;99.90;;;;;;5093655;28;20024;-68
2023/07/29 03:03:32;;;;;;;2.97;1.88;;;17.30;99.90;;;;;;5091968;28;20079;-68
2023/07/29 03:06:06;;;;;;;5.82;2.58;;;17.30;99.90;;;;;;5082451;28;20410;-68
2023/07/29 03:08:32;;;;;;;4.97;1.60;;;17.20;99.90;;;;;;5081927;28;20035;-68
2023/07/29 03:10:58;;;;;;;6.90;1.80;;;17.20;99.90;;;;;;5092586;28;20028;-68
2023/07/29 03:13:23;;;;;;;6.87;2.20;;;17.20;99.90;;;;;;5082636;28;20021;-68
2023/07/29 03:15:49;;;;;;;4.97;1.93;;;17.20;99.90;;;;;;5090634;28;20433;-68
2023/07/29 03:18:15;;;;;;;3.50;2.30;;;17.20;99.90;;;;;;5092499;28;20036;-79
2023/07/29 03:20:41;;;;;;;3.03;1.65;;;17.20;99.90;;;;;;5079692;28;20032;-68
2023/07/29 03:23:07;;;;;;;4.70;1.97;;;17.20;99.90;;;;;;5097625;28;20035;-68
2023/07/29 03:25:33;;;;;;;2.83;1.80;;;17.20;99.90;;;;;;5091934;28;20020;-68
2023/07/29 03:27:59;;;;;;;2.37;1.67;;;17.20;99.90;;;;;;5094988;28;20292;-68
2023/07/29 03:30:24;;;;;;;7.23;1.90;;;17.20;99.90;;;;;;5096441;28;20040;-67
2023/07/29 03:32:51;;;;;;;5.93;2.17;;;17.20;99.90;;;;;;5097656;28;20028;-68
2023/07/29 03:35:17;;;;;;;5.35;2.00;;;17.20;99.90;;;;;;5096520;28;20103;-68
2023/07/29 03:37:43;;;;;;;2.90;1.57;;;17.20;99.90;;;;;;5096661;28;20107;-68
2023/07/29 03:40:09;;;;;;;3.42;1.67;;;17.20;99.90;;;;;;5097295;28;20027;-68
2023/07/29 03:42:36;;;;;;;8.65;2.65;;;17.20;99.90;;;;;;5096666;28;20036;-68
2023/07/29 03:45:01;;;;;;;4.00;1.90;;;17.20;99.90;;;;;;5095396;28;20031;-68
2023/07/29 03:47:27;;;;;;;7.83;2.30;;;17.20;99.90;;;;;;5094307;28;20032;-68
2023/07/29 03:49:54;;;;;;;4.90;2.05;;;17.20;99.90;;;;;;5096784;28;20069;-67
2023/07/29 03:52:19;;;;;;;3.97;2.05;;;17.20;99.90;;;;;;5096342;28;20027;-68
2023/07/29 03:54:45;;;;;;;8.38;1.95;;;17.30;99.90;;;;;;5096127;28;20028;-68
2023/07/29 03:57:11;;;;;;;6.87;2.17;;;17.30;99.90;;;;;;5094753;28;20523;-69
2023/07/29 03:59:37;;;;;;;5.00;2.13;;;17.20;99.90;;;;;;5096782;28;20024;-68
2023/07/29 04:02:03;;;;;;;3.78;1.88;;;17.20;99.90;;;;;;5094837;28;20039;-68
2023/07/29 04:04:29;;;;;;;2.28;1.35;;;17.20;99.90;;;;;;5098017;28;20028;-68
2023/07/29 04:06:55;;;;;;;4.33;1.93;;;17.10;99.90;;;;;;5094151;28;20032;-69
2023/07/29 04:09:20;;;;;;;3.57;1.87;;;17.20;99.90;;;;;;5096071;28;20020;-69
2023/07/29 04:11:46;;;;;;;6.40;1.73;;;17.20;99.90;;;;;;5096718;28;20028;-68
2023/07/29 04:14:12;;;;;;;1.93;1.60;;;17.20;99.90;;;;;;5094376;28;20322;-68
2023/07/29 04:16:37;;;;;;;2.80;1.80;;;17.20;99.90;;;;;;5094581;28;20028;-68
2023/07/29 04:19:03;;;;;;;3.67;1.80;;;17.20;99.90;;;;;;5092686;28;20077;-68
2023/07/29 04:21:29;;;;;;;4.33;1.73;;;17.20;99.90;;;;;;5095551;28;20434;-68
2023/07/29 04:23:55;;;;;;;3.30;2.10;;;17.20;99.90;;;;;;5093532;28;20031;-68
2023/07/29 04:26:21;;;;;;;6.90;1.60;;;17.20;99.90;;;;;;5090147;28;20330;-68
2023/07/29 04:28:46;;;;;;;5.17;2.10;;;17.10;99.90;;;;;;5077528;28;20073;-69
2023/07/29 04:31:12;;;;;;;3.40;1.77;;;17.10;99.90;;;;;;5096144;28;20023;-70
2023/07/29 04:33:38;;;;;;;3.33;1.60;;;17.10;99.90;;;;;;5093533;28;20330;-69
2023/07/29 04:36:04;;;;;;;4.67;2.17;;;17.10;99.90;;;;;;5095135;28;20365;-68
2023/07/29 04:38:33;;;;;;;4.22;1.77;;;17.10;99.90;;;;;;5095410;28;20418;-68
2023/07/29 04:41:02;;;;;;;3.92;2.22;;;17.00;99.90;;;;;;5096219;28;20028;-68
2023/07/29 04:43:30;;;;;;;2.80;2.08;;;17.00;99.90;;;;;;5095015;28;20441;-69
2023/07/29 04:45:56;;;;;;;3.30;1.67;;;17.00;99.90;;;;;;5093958;28;20076;-69
2023/07/29 04:48:22;;;;;;;3.13;1.90;;;17.00;99.90;;;;;;5083842;28;20032;-69
2023/07/29 04:50:48;;;;;;;4.25;1.52;;;17.00;99.90;;;;;;5086649;28;20031;-68
2023/07/29 04:53:13;;;;;;;4.60;2.07;;;17.00;99.90;;;;;;5084116;28;20028;-79
2023/07/29 04:55:42;;;;;;;6.40;1.90;;;17.00;99.90;;;;;;5088020;28;20091;-69
2023/07/29 04:58:08;;;;;;;4.45;1.90;;;17.00;99.90;;;;;;5090238;28;20093;-69
2023/07/29 05:00:34;;;;;;;3.77;1.77;;;17.00;99.90;;;;;;5087679;28;20115;-69
2023/07/29 05:03:00;;;;;;;3.30;2.20;;;17.00;99.90;;;;;;5085815;28;20040;-69
2023/07/29 05:05:26;;;;;;;;;;;17.10;99.90;;;;;;5087755;28;20074;-69
2023/07/29 05:07:52;;;;;;;6.88;2.03;;;17.10;99.90;;;;;;5089331;28;20482;-68
2023/07/29 05:10:19;;;;;;;2.37;1.40;;;17.10;99.90;;;;;;5084294;28;20028;-69
2023/07/29 05:12:44;;;;;;;4.78;1.95;;;17.20;99.90;;;;;;5082055;28;20265;-69
2023/07/29 05:15:10;;;;;;;3.33;1.87;;;17.20;99.90;;;;;;5086053;28;20035;-69
2023/07/29 05:17:36;;;;;;;6.07;2.00;;;17.20;99.90;;;;;;5083846;28;20031;-81
2023/07/29 05:20:02;;;;;;;3.13;2.23;;;17.20;99.90;;;;;;5087758;28;20162;-69
2023/07/29 05:22:28;;;;;;;4.30;1.90;;;17.20;99.90;;;;;;5089838;28;20283;-69
2023/07/29 05:24:54;;;;;;;7.33;2.43;;;17.20;99.90;;;;;;5088244;28;20035;-69
2023/07/29 05:27:19;;;;;;;3.23;1.90;;;17.30;99.90;;;;;;5084739;28;20028;-80
2023/07/29 05:29:45;;;;;;;6.60;2.53;;;17.30;99.90;;;;;;5082937;28;20025;-68
2023/07/29 05:32:11;;;;;;;4.33;2.40;;;17.40;99.90;;;;;;5082515;28;20031;-69
2023/07/29 05:34:37;;;;;;;4.40;2.30;;;17.40;99.90;;;;;;5082626;28;20067;-69
2023/07/29 05:37:03;;;;;;;5.33;2.57;;;17.50;99.90;;;;;;5087987;28;20466;-70
2023/07/29 05:39:30;;;;;;;3.97;2.40;;;17.50;99.90;;;;;;5082102;28;20277;-69
2023/07/29 05:41:56;;;;;;;7.60;2.33;;;17.50;99.90;;;;;;5084456;28;20028;-69
2023/07/29 05:44:21;;;;;;;4.03;2.73;;;17.50;99.90;;;;;;5094634;28;20036;-70
2023/07/29 05:46:47;;;;;;;9.63;2.53;;;17.60;99.90;;;;;;5094740;28;20068;-68
2023/07/29 05:49:13;;;;;;;4.30;2.43;;;17.50;99.90;;;;;;5093301;28;20031;-69
2023/07/29 05:51:39;;;;;;;4.37;2.60;;;17.60;99.90;;;;;;5093880;28;20114;-68
2023/07/29 05:54:04;;;;;;;6.20;2.87;;;17.60;99.90;;;;;;5080049;28;20029;-68
2023/07/29 05:56:31;;;;;;;2.83;2.03;;;17.60;99.90;;;;;;5068688;28;20048;-68
2023/07/29 05:58:57;;;;;;;4.03;2.83;;;17.70;99.90;;;;;;5087721;28;20038;-69
2023/07/29 06:01:23;;;;;;;3.17;2.03;;;17.70;99.90;;;;;;5090431;28;20032;-68
2023/07/29 06:03:49;;;;;;;5.77;2.23;;;17.80;99.90;;;;;;5091717;28;20376;-69
2023/07/29 06:06:14;;;;;;;5.27;2.93;;;17.90;99.90;;;;;;5093877;28;20419;-79
2023/07/29 06:08:40;;;;;;;4.10;2.53;;;18.00;99.90;;;;;;5094756;28;20427;-69
2023/07/29 06:11:08;;;;;;;5.17;2.50;;;18.00;99.90;;;;;;5093528;28;20028;-68
2023/07/29 06:13:34;;;;;;;8.65;2.83;;;18.10;99.90;;;;;;5093518;28;20024;-81
2023/07/29 06:16:00;;;;;;;6.47;2.47;;;18.10;99.90;;;;;;5094008;28;20039;-69
2023/07/29 06:18:25;;;;;;;6.97;2.50;;;18.20;99.90;;;;;;5092284;28;20024;-68
2023/07/29 06:20:52;;;;;;;3.17;2.43;;;18.20;99.90;;;;;;5094372;28;20081;-68
2023/07/29 06:23:17;;;;;;;6.38;2.60;;;18.20;99.90;;;;;;5093315;28;20038;-69
2023/07/29 06:25:43;;;;;;;7.63;2.53;;;18.20;99.90;;;;;;5088339;28;20036;-68
2023/07/29 06:28:09;;;;;;;7.60;3.07;;;18.20;99.90;;;;;;5085608;28;20092;-68
2023/07/29 06:30:35;;;;;;;9.80;2.95;;;18.20;99.90;;;;;;5092782;28;20401;-68
2023/07/29 06:33:03;;;;;;;5.95;3.05;;;18.20;99.90;;;;;;5093436;28;20082;-69
2023/07/29 06:35:28;;;;;;;3.97;2.85;;;18.30;99.90;;;;;;5092251;28;20047;-69
2023/07/29 06:37:54;;;;;;;4.53;2.60;;;18.30;99.90;;;;;;5094373;28;20403;-68
2023/07/29 06:40:20;;;;;;;4.67;2.90;;;18.40;99.90;;;;;;5082042;28;20025;-68
2023/07/29 06:42:45;;;;;;;4.83;2.93;;;18.40;99.90;;;;;;5092473;28;20024;-69
2023/07/29 06:45:11;;;;;;;5.20;2.77;;;18.40;99.90;;;;;;5094165;28;20032;-68
2023/07/29 06:47:37;;;;;;;5.60;2.90;;;18.40;99.90;;;;;;5094538;28;20016;-69
2023/07/29 06:50:04;;;;;;;5.05;2.85;;;18.40;99.90;;;;;;5095850;28;20029;-69
2023/07/29 06:52:30;;;;;;;6.50;3.05;;;18.40;99.90;;;;;;5077940;28;20103;-68
2023/07/29 06:54:55;;;;;;;6.07;2.77;;;18.50;99.90;;;;;;5103959;28;20103;-69
2023/07/29 06:57:21;;;;;;;8.23;3.40;;;18.50;99.90;;;;;;5096482;28;20040;-69
2023/07/29 06:59:47;;;;;;;3.97;2.70;;;18.50;99.90;;;;;;5097961;28;20024;-69
2023/07/29 07:02:13;;;;;;;8.73;3.07;;;18.50;99.90;;;;;;5097793;28;20032;-68
2023/07/29 07:04:38;;;;;;;5.57;2.57;;;18.60;99.90;;;;;;5096516;28;20156;-68
2023/07/29 07:07:04;;;;;;;4.43;2.97;;;18.60;99.90;;;;;;5106870;28;20280;-69
2023/07/29 07:09:30;;;;;;;3.58;3.00;;;18.70;99.90;;;;;;5096779;28;20034;-69
2023/07/29 07:11:56;;;;;;;4.80;2.77;;;18.70;99.90;;;;;;5097346;28;20035;-69
2023/07/29 07:14:21;;;;;;;9.10;3.33;;;18.80;99.90;;;;;;5096943;28;20048;-69
2023/07/29 07:16:47;;;;;;;8.03;2.67;;;18.90;99.90;;;;;;5097539;28;20024;-68
2023/07/29 07:19:13;;;;;;;5.03;3.20;;;18.90;99.90;;;;;;5084558;28;20113;-83
2023/07/29 07:21:38;;;;;;;7.20;2.70;;;19.00;99.90;;;;;;5082337;28;20039;-68
2023/07/29 07:24:04;;;;;;;6.03;2.47;;;19.00;99.90;;;;;;5091570;28;20437;-68
2023/07/29 07:26:30;;;;;;;3.87;2.17;;;19.10;99.90;;;;;;5089373;28;20314;-68
2023/07/29 07:28:56;;;;;;;4.07;2.50;;;19.20;99.90;;;;;;5084861;28;20039;-69
2023/07/29 07:31:22;;;;;;;3.80;2.37;;;19.30;99.90;;;;;;5087953;28;20020;-69
2023/07/29 07:33:48;;;;;;;6.25;3.00;;;19.50;99.90;;;;;;5087336;28;20411;-68
2023/07/29 07:36:14;;;;;;;6.93;2.87;;;19.60;99.90;;;;;;5091848;28;20107;-68
2023/07/29 07:38:39;;;;;;;5.97;2.60;;;19.70;99.90;;;;;;5089472;28;20028;-69
2023/07/29 07:41:05;;;;;;;5.17;2.83;;;19.70;99.90;;;;;;5087483;28;20032;-79
2023/07/29 07:43:31;;;;;;;4.63;2.53;;;19.80;99.90;;;;;;5088785;28;20063;-68
2023/07/29 07:46:01;;;;;;;5.55;2.60;;;20.00;99.90;;;;;;5078770;28;20486;-68
2023/07/29 07:48:27;;;;;;;6.30;2.38;;;20.00;99.90;;;;;;5086906;28;20031;-80
2023/07/29 07:50:53;;;;;;;7.28;2.67;;;19.90;99.90;;;;;;5088517;28;20048;-69
2023/07/29 07:53:19;;;;;;;3.17;2.80;;;19.90;99.90;;;;;;5089911;28;20071;-68
2023/07/29 07:55:45;;;;;;;5.38;2.40;;;19.90;99.90;;;;;;5088424;28;20016;-69
2023/07/29 07:58:11;;;;;;;5.40;2.78;;;19.90;99.90;;;;;;5087593;28;20020;-69
2023/07/29 08:00:37;;;;;;;5.40;2.73;;;19.90;99.90;;;;;;5086724;28;20058;-69
2023/07/29 08:03:03;;;;;;;6.20;2.60;;;19.90;99.90;;;;;;5092997;28;20036;-68
2023/07/29 08:05:29;;;;;;;3.28;2.03;;;19.90;99.90;;;;;;5093054;28;20016;-68
2023/07/29 08:07:55;;;;;;;5.93;2.80;;;19.80;99.90;;;;;;5095959;28;20028;-68
2023/07/29 08:10:20;;;;;;;7.30;3.07;;;19.80;99.90;;;;;;5084792;28;20680;-68
2023/07/29 08:12:46;;;;;;;6.73;2.80;;;19.80;99.90;;;;;;5092362;28;20028;-69
2023/07/29 08:15:11;;;;;;;6.87;2.67;;;19.90;99.90;;;;;;5095041;28;20411;-69
2023/07/29 08:17:37;;;;;;;5.83;2.40;;;20.10;99.90;;;;;;5095926;28;20410;-69
2023/07/29 08:20:03;;;;;;;4.07;2.70;;;20.40;99.90;;;;;;5095514;28;20032;-69
2023/07/29 08:22:29;;;;;;;6.40;2.50;;;20.60;99.90;;;;;;5096180;28;20020;-69
2023/07/29 08:24:54;;;;;;;6.77;2.63;;;20.60;99.90;;;;;;5068783;28;20032;-70
2023/07/29 08:27:20;;;;;;;2.60;1.80;;;20.50;99.90;;;;;;5085014;28;20028;-70
2023/07/29 08:29:46;;;;;;;6.83;1.70;;;20.30;99.90;;;;;;5095924;28;20363;-69
2023/07/29 08:32:11;;;;;;;7.33;1.87;;;20.10;99.90;;;;;;5094966;28;20020;-70
2023/07/29 08:34:37;;;;;;;5.03;1.87;;;19.90;99.90;;;;;;5077967;28;20111;-69
2023/07/29 08:37:03;;;;;;;2.80;1.20;;;19.70;99.90;;;;;;5092813;28;20020;-69
2023/07/29 08:39:29;;;;;;;2.30;1.07;;;19.60;99.90;;;;;;5095417;28;20028;-70
2023/07/29 08:42:01;;;;;;;7.03;1.42;;;19.60;99.90;;;;;;5092111;28;20032;-70
2023/07/29 08:44:34;;;;;;;4.05;1.02;;;19.50;99.90;;;;;;5082597;28;20130;-69
2023/07/29 08:47:00;;;;;;;4.38;1.30;;;19.50;99.90;;;;;;5094550;28;20020;-68
2023/07/29 08:49:28;;;;;;;3.75;1.30;;;19.50;99.90;;;;;;5095620;28;20063;-71
2023/07/29 08:51:57;;;;;;;1.70;1.20;;;19.40;99.90;;;;;;5094011;28;20103;-70
2023/07/29 08:54:22;;;;;;;3.53;1.10;;;19.30;99.90;;;;;;5094024;28;20099;-70
2023/07/29 08:56:49;;;;;;;1.37;1.17;;;19.30;99.90;;;;;;5092786;28;20095;-69
2023/07/29 08:59:16;;;;;;;2.92;1.08;;;19.40;99.90;;;;;;5087339;28;20361;-70
2023/07/29 09:01:43;;;;;;;3.72;1.05;;;19.40;99.90;;;;;;5094679;28;20020;-70
2023/07/29 09:04:08;;;;;;;4.28;1.30;;;19.40;99.90;;;;;;5088396;28;20082;-70
2023/07/29 09:06:40;;;;;;;4.17;1.60;;;19.40;99.90;;;;;;5094856;28;20359;-81
2023/07/29 09:09:07;;;;;;;4.43;1.35;;;19.30;99.90;;;;;;5067020;28;20401;-70
2023/07/29 09:11:33;;;;;;;3.83;1.13;;;19.40;99.90;;;;;;5087642;28;20391;-70
2023/07/29 09:13:59;;;;;;;4.20;1.50;;;19.30;99.90;;;;;;5091169;28;20052;-70
2023/07/29 09:16:25;;;;;;;2.63;1.27;;;19.20;99.90;;;;;;5091405;28;20348;-70
2023/07/29 09:18:52;;;;;;;3.67;1.20;;;19.20;99.90;;;;;;5085318;28;20054;-70
2023/07/29 09:21:28;;;;;;;6.13;1.38;;;19.20;99.90;;;;;;5092869;28;20074;-69
2023/07/29 09:23:54;;;;;;;5.18;1.85;;;19.10;99.90;;;;;;5080088;28;20411;-69
2023/07/29 09:26:24;;;;;;;1.83;1.15;;;19.10;99.90;;;;;;5092512;28;20051;-70
2023/07/29 09:28:58;;;;;;;2.80;1.20;;;19.10;99.90;;;;;;5074779;28;20020;-69
2023/07/29 09:31:26;;;;;;;3.58;1.92;;;19.20;99.90;;;;;;5069711;28;20110;-69
2023/07/29 09:34:01;;;;;;;3.40;1.50;;;19.40;99.90;;;;;;5086156;28;20414;-69
2023/07/29 09:36:30;;;;;;;4.97;1.90;;;19.50;99.90;;;;;;5092073;28;20035;-81
2023/07/29 09:38:56;;;;;;;2.60;1.40;;;19.80;99.90;;;;;;5092321;28;20028;-69
2023/07/29 09:41:26;;;;;;;;;;;19.90;99.90;;;;;;5085094;28;20043;-69
2023/07/29 09:43:59;;;;;;;1.67;1.35;;;19.90;99.90;;;;;;5077272;28;19937;-80
2023/07/29 09:46:31;;;;;;;2.85;1.00;;;19.80;99.90;;;;;;5092973;28;20024;-68
2023/07/29 09:48:57;;;;;;;4.68;1.40;;;19.70;99.90;;;;;;5092486;28;20028;-69
2023/07/29 09:51:23;;;;;;;1.42;1.25;;;19.60;99.90;;;;;;5089817;28;20028;-69
2023/07/29 09:53:50;;;;;;;;;;;19.70;99.90;;;;;;5085836;28;20025;-69
2023/07/29 09:56:16;;;;;;;;;;;19.80;99.90;;;;;;5092763;28;19908;-69
2023/07/29 09:58:47;;;;;;;3.17;1.38;;;19.90;99.90;;;;;;5090986;28;19962;-69
2023/07/29 10:01:14;;;;;;;2.22;1.30;;;20.00;99.90;;;;;;5084931;28;20040;-70
2023/07/29 10:03:40;;;;;;;6.00;1.67;;;20.10;99.90;;;;;;5083217;28;20059;-69
2023/07/29 10:06:07;;;;;;;2.17;1.42;;;20.20;99.90;;;;;;5089825;28;20055;-69
2023/07/29 10:08:38;;;;;;;;;;;20.50;99.90;;;;;;5075792;28;20020;-71
2023/07/29 10:11:06;;;;;;;4.47;1.55;;;20.70;99.90;;;;;;5087321;28;19904;-69
2023/07/29 10:13:33;;;;;;;3.85;1.42;;;20.90;99.90;;;;;;5092235;28;20335;-69
2023/07/29 10:16:02;;;;;;;5.93;1.02;;;21.00;99.90;;;;;;5081931;28;20028;-79
2023/07/29 10:18:28;;;;;;;5.57;1.45;;;21.10;99.90;;;;;;5072443;28;20020;-69
2023/07/29 10:20:56;;;;;;;2.67;1.38;;;21.10;99.90;;;;;;5086504;28;20077;-69
2023/07/29 10:23:22;;;;;;;2.78;1.42;;;21.20;99.90;;;;;;5089745;28;20055;-71
2023/07/29 10:26:02;;;;;;;5.93;1.08;;;21.10;99.90;;;;;;5090762;28;20021;-70
2023/07/29 10:28:30;;;;;;;4.10;1.38;;;21.10;99.90;;;;;;5091752;28;20077;-70
2023/07/29 10:30:57;;;;;;;3.67;1.23;;;21.10;99.90;;;;;;5072772;28;20368;-70
2023/07/29 10:33:23;;;;;;;3.60;1.20;;;21.20;99.90;;;;;;5086647;28;20020;-70
2023/07/29 10:35:49;;;;;;;2.63;1.52;;;21.20;99.90;;;;;;5089695;28;20024;-81
2023/07/29 10:38:16;;;;;;;2.33;1.10;;;21.30;99.90;;;;;;5089586;28;20388;-70
2023/07/29 10:40:56;;;;;;;3.63;1.80;;;21.40;99.90;;;;;;5096090;28;20040;-70
2023/07/29 10:43:26;;;;;;;5.25;1.50;;;21.40;99.90;;;;;;5091621;28;20040;-71
2023/07/29 10:45:52;;;;;;;3.05;1.75;;;21.30;99.90;;;;;;5095208;28;20020;-71
2023/07/29 10:48:36;;;;;;;6.03;1.35;;;21.20;99.90;;;;;;5079847;28;20064;-70
2023/07/29 10:51:35;;;;;;;2.40;1.25;;;21.10;99.90;;;;;;5075421;28;20353;-69
2023/07/29 10:54:03;;;;;;;2.20;1.55;;;21.00;99.90;;;;;;4995529;28;20552;-72
2023/07/29 10:56:34;;;;;;;8.23;1.65;;;20.90;99.90;;;;;;4996292;28;20050;-80
2023/07/29 10:59:23;;;;;;;2.80;1.40;;;20.90;99.90;;;;;;4979223;28;20030;-70
2023/07/29 11:01:57;;;;;;;6.47;1.85;;;20.90;99.90;;;;;;4981222;28;20026;-82
2023/07/29 11:04:29;;;;;;;3.08;1.45;;;20.80;99.90;;;;;;4994873;28;20117;-70
2023/07/29 11:07:03;;;;;;;6.05;1.70;;;20.70;99.90;;;;;;4996360;28;20074;-80
2023/07/29 11:09:53;;;;;;;7.55;1.70;;;20.60;99.90;;;;;;4995560;28;20030;-71
2023/07/29 11:12:42;;;;;;;7.32;1.70;;;20.60;99.90;;;;;;4996224;28;20034;-83
2023/07/29 11:15:10;;;;;;;3.20;1.85;;;20.70;99.90;;;;;;4985725;28;20014;-70
2023/07/29 11:17:43;;;;;;;3.67;1.55;;;20.60;99.90;;;;;;4995903;28;20043;-70
2023/07/29 11:20:09;;;;;;;1.98;1.40;;;20.70;99.90;;;;;;4992085;28;20442;-73
2023/07/29 11:22:36;;;;;;;4.00;1.92;;;20.60;99.90;;;;;;4995969;28;20042;-69
2023/07/29 11:25:03;;;;;;;3.55;2.03;;;20.60;99.90;;;;;;4995271;28;20030;-70
2023/07/29 11:27:28;;;;;;;3.88;1.45;;;20.60;99.90;;;;;;4995864;28;20122;-82
2023/07/29 11:30:02;;;;;;;2.30;1.87;;;20.70;99.90;;;;;;5036147;28;20131;-70
2023/07/29 11:32:28;;;;;;;5.10;1.92;;;20.80;99.90;;;;;;5087067;28;20043;-69
2023/07/29 11:34:54;;;;;;;6.27;1.70;;;20.90;99.90;;;;;;5096542;28;20047;-83
2023/07/29 11:37:21;;;;;;;3.90;1.65;;;21.00;99.90;;;;;;5094951;28;20273;-70
2023/07/29 11:39:47;;;;;;;4.55;1.67;;;21.20;99.90;;;;;;5096603;28;20115;-70
2023/07/29 11:42:14;;;;;;;1.95;1.50;;;21.30;99.90;;;;;;5093628;28;20600;-71
2023/07/29 11:44:40;;;;;;;1.45;1.20;;;21.30;99.90;;;;;;5092146;28;20031;-89
2023/07/29 11:47:07;;;;;;;2.50;1.40;;;21.20;99.90;;;;;;5086179;28;20025;-70
2023/07/29 11:49:37;;;;;;;1.30;1.00;;;21.20;99.90;;;;;;5078872;28;20430;-70
2023/07/29 11:52:05;;;;;;;3.63;1.35;;;21.40;99.90;;;;;;5093946;28;20024;-70
2023/07/29 11:54:31;;;;;;;2.25;1.40;;;21.60;99.90;;;;;;5094497;28;20149;-71
2023/07/29 11:56:57;;;;;;;3.00;1.33;;;21.90;99.90;;;;;;5097283;28;20494;-70
2023/07/29 11:59:23;;;;;;;2.05;1.38;;;22.10;99.90;;;;;;5098143;28;20032;-83
2023/07/29 12:01:49;;;;;;;1.58;1.42;;;22.10;99.90;;;;;;5097203;28;20448;-82
2023/07/29 12:04:16;;;;;;;1.93;1.73;;;22.20;99.90;;;;;;5085279;28;20052;-86
2023/07/29 12:06:42;;;;;;;;;;;22.20;99.90;;;;;;5096112;28;20280;-85
2023/07/29 12:09:09;;;;;;;3.22;1.20;;;22.10;99.90;;;;;;5095807;28;20202;-86
2023/07/29 12:11:35;;;;;;;1.20;1.10;;;21.90;99.90;;;;;;5078022;28;20035;-68
2023/07/29 12:14:00;;;;;;;1.30;1.17;;;21.70;99.90;;;;;;5097274;28;20024;-69
2023/07/29 12:16:26;;;;;;;0.70;0.70;;;21.50;99.90;;;;;;5095263;28;20024;-80
2023/07/29 12:18:52;;;;;;;0.90;0.80;;;21.30;99.90;;;;;;5078091;28;20020;-70
2023/07/29 12:21:21;;;;;;;0.73;0.73;;;21.10;99.90;;;;;;5096100;28;20028;-70
2023/07/29 12:23:47;;;;;;;5.45;0.80;;;20.90;99.90;;;;;;5095506;28;20063;-84
2023/07/29 12:26:12;;;;;;;1.23;0.87;;;20.70;99.90;;;;;;5092145;28;20117;-86
2023/07/29 12:28:38;;;;;;;1.40;1.00;;;20.60;99.90;;;;;;5095934;28;20020;-71
2023/07/29 12:31:08;;;;;;;0.87;0.73;;;20.50;99.90;;;;;;5096754;28;20087;-71
2023/07/29 12:33:36;;;;;;;3.55;0.90;;;20.30;99.90;;;;;;5077469;28;20028;-83
2023/07/29 12:36:02;;;;;;;2.05;0.90;;;20.10;99.90;;;;;;5088055;28;20457;-70
2023/07/29 12:38:29;;;;;;;1.58;1.00;;;20.10;99.90;;;;;;5091421;28;20107;-70
2023/07/29 12:40:55;;;;;;;0.90;0.90;;;20.00;99.90;;;;;;5080688;28;20070;-70
2023/07/29 12:43:21;;;;;;;2.30;1.10;;;19.90;99.90;;;;;;5093647;28;20506;-70
2023/07/29 12:45:49;;;;;;;2.20;1.00;;;20.00;99.90;;;;;;5076264;28;20419;-70
2023/07/29 12:48:15;;;;;;;1.05;0.95;;;20.30;99.90;;;;;;5087930;28;20020;-70